Mounds View, Minnesota
Current Conditions -  °F | °C
As of 7:45 AM on Monday 24 Nov 2014 (Local Time) from KANE Reporting Station
Overcast Overcast  
Wind Chill: 11°   Ceiling: 1500
Heat Index: 25°   Visibility: 10mi
Dew Point: 23°   Wind: 18mph
Humidity: 93%   Direction: 290°WNW
Pressure: 29.36"   Gusts: 24mph
Location:  45.0755°N, 93.1911°W
Report Text: KANE 241345Z 29016G21KT 10SM OVC015 M04/M05 A2936
Loading
Personal Weather Stations






























Interactive Weather Map New forecast layout! Learn more

10-Day Weather Forecast

Advertisements
Track Severe Weather on mobile